Time;durP1;ratioP1;P1;durP2;ratioP2;P2;SDS_P1;SDS_P2;PMS_P1;PMS_P2;Temp;Humidity;BMP_temperature;BMP_pressure;BME280_temperature;BME280_humidity;BME280_pressure;Samples;Min_cycle;Max_cycle;Signal;HPM_P1;HPM_P2
2023/05/20 00:01:45;;;;;;;8.23;5.22;;;10.20;99.90;;;;;;6289158;22;20073;-91
2023/05/20 00:04:32;;;;;;;12.15;5.72;;;10.30;99.90;;;;;;6286236;22;20106;-92
2023/05/20 00:07:20;;;;;;;14.23;6.13;;;10.30;99.90;;;;;;6291276;22;20034;-90
2023/05/20 00:10:08;;;;;;;9.40;5.63;;;10.30;99.90;;;;;;6288640;22;20464;-90
2023/05/20 00:12:55;;;;;;;12.65;5.53;;;10.30;99.90;;;;;;6288022;22;20509;-91
2023/05/20 00:15:43;;;;;;;9.55;5.75;;;10.30;99.90;;;;;;6288701;22;20161;-92
2023/05/20 00:18:32;;;;;;;8.43;5.28;;;10.40;99.90;;;;;;6287486;22;20319;-90
2023/05/20 00:21:19;;;;;;;7.90;4.80;;;10.40;99.90;;;;;;6288250;22;20110;-91
2023/05/20 00:24:06;;;;;;;10.95;5.47;;;10.40;99.90;;;;;;6288278;22;20034;-92
2023/05/20 00:26:54;;;;;;;9.70;5.60;;;10.40;99.90;;;;;;6312035;22;20303;-92
2023/05/20 00:29:42;;;;;;;8.75;4.93;;;10.40;99.90;;;;;;6288011;22;20023;-91
2023/05/20 00:32:30;;;;;;;9.25;5.32;;;10.40;99.90;;;;;;6288928;22;20114;-91
2023/05/20 00:35:17;;;;;;;10.60;5.53;;;10.40;99.90;;;;;;6290011;22;20020;-90
2023/05/20 00:38:07;;;;;;;15.48;5.97;;;10.50;99.90;;;;;;6290265;22;20086;-91
2023/05/20 00:41:08;;;;;;;10.10;5.30;;;10.50;99.90;;;;;;6317285;22;20122;-90
2023/05/20 00:43:59;;;;;;;10.27;5.40;;;10.50;99.90;;;;;;6296107;22;20065;-91
2023/05/20 00:46:52;;;;;;;10.20;5.57;;;10.50;99.90;;;;;;6302742;22;20117;-93
2023/05/20 00:49:45;;;;;;;8.15;5.15;;;10.50;99.90;;;;;;6285857;22;20034;-92
2023/05/20 00:52:43;;;;;;;9.27;5.25;;;10.50;99.90;;;;;;6287822;22;20046;-90
2023/05/20 00:56:01;;;;;;;8.98;4.85;;;10.50;99.90;;;;;;6289573;22;20011;-93
2023/05/20 00:58:52;;;;;;;9.63;5.18;;;10.60;99.90;;;;;;6286933;22;20425;-91
2023/05/20 01:01:43;;;;;;;14.05;5.40;;;10.60;99.90;;;;;;6309832;22;20023;-90
2023/05/20 01:04:33;;;;;;;6.37;4.80;;;10.60;99.90;;;;;;6285658;22;20027;-91
2023/05/20 01:07:21;;;;;;;11.27;5.50;;;10.60;99.90;;;;;;6288049;22;20023;-91
2023/05/20 01:10:10;;;;;;;8.65;5.30;;;10.70;99.90;;;;;;6288155;22;20023;-91
2023/05/20 01:13:04;;;;;;;7.90;5.05;;;10.70;99.90;;;;;;6290908;22;20050;-90
2023/05/20 01:15:57;;;;;;;9.10;5.43;;;10.60;99.90;;;;;;6292502;22;20030;-90
2023/05/20 01:19:04;;;;;;;12.35;5.72;;;10.60;99.90;;;;;;6311914;22;20098;-91
2023/05/20 01:22:12;;;;;;;6.60;5.03;;;10.60;99.90;;;;;;6308916;22;20015;-93
2023/05/20 01:25:14;;;;;;;6.75;5.25;;;10.60;99.90;;;;;;6290351;22;20019;-92
2023/05/20 01:28:01;;;;;;;11.25;5.90;;;10.60;99.90;;;;;;6286452;22;20023;-93
2023/05/20 01:30:59;;;;;;;8.75;5.68;;;10.60;99.90;;;;;;6285812;22;20023;-91
2023/05/20 01:33:50;;;;;;;11.10;5.88;;;10.60;99.90;;;;;;6285811;22;20023;-92
2023/05/20 01:36:44;;;;;;;10.10;5.20;;;10.70;99.90;;;;;;6285366;22;20019;-94
2023/05/20 01:39:32;;;;;;;;;;;10.70;99.90;;;;;;6285918;22;20157;-91
2023/05/20 01:42:27;;;;;;;8.52;4.82;;;10.60;99.90;;;;;;6288794;22;19922;-91
2023/05/20 01:45:32;;;;;;;9.52;5.50;;;10.60;99.90;;;;;;6309697;22;20011;-91
2023/05/20 01:48:20;;;;;;;10.55;5.50;;;10.60;99.90;;;;;;6284426;22;20023;-90
2023/05/20 01:51:07;;;;;;;12.40;5.43;;;10.60;99.90;;;;;;6285762;22;20019;-93
2023/05/20 01:53:55;;;;;;;8.98;5.75;;;10.50;99.90;;;;;;6285175;22;20082;-90
2023/05/20 01:56:49;;;;;;;6.97;5.15;;;10.50;1.00;;;;;;6286269;22;20034;-90
2023/05/20 01:59:40;;;;;;;10.55;5.53;;;10.50;1.00;;;;;;6286407;22;20038;-90
2023/05/20 02:02:27;;;;;;;8.77;5.22;;;10.50;1.00;;;;;;6292496;22;20023;-92
2023/05/20 02:05:18;;;;;;;6.75;5.50;;;10.50;1.00;;;;;;6298394;22;20023;-91
2023/05/20 02:08:05;;;;;;;7.55;5.30;;;10.50;1.00;;;;;;6315055;22;20123;-91
2023/05/20 02:10:53;;;;;;;9.60;5.40;;;10.50;1.00;;;;;;6283915;22;20023;-91
2023/05/20 02:13:47;;;;;;;16.13;6.50;;;10.40;1.00;;;;;;6284893;22;20019;-89
2023/05/20 02:16:59;;;;;;;10.45;5.32;;;10.40;1.00;;;;;;6287981;22;20317;-91
2023/05/20 02:19:49;;;;;;;10.77;5.25;;;10.50;1.00;;;;;;6181806;23;20317;-89
2023/05/20 02:22:37;;;;;;;7.07;5.60;;;10.50;1.00;;;;;;6162827;23;20098;-91
2023/05/20 02:25:24;;;;;;;11.20;5.32;;;10.60;1.00;;;;;;6161235;23;20025;-91
2023/05/20 02:28:11;;;;;;;8.40;6.40;;;10.60;1.00;;;;;;6182269;23;20400;-91
2023/05/20 02:31:03;;;;;;;11.88;5.45;;;10.50;1.00;;;;;;6163228;23;20025;-92
2023/05/20 02:34:01;;;;;;;8.93;6.00;;;10.60;1.00;;;;;;6164190;23;20091;-91
2023/05/20 02:40:13;;;;;;;8.25;5.68;;;10.50;11.00;;;;;;6307323;22;20020;-90
2023/05/20 02:43:11;;;;;;;8.15;5.85;;;10.40;25.30;;;;;;6287223;22;20092;-89
2023/05/20 02:46:02;;;;;;;8.63;6.65;;;10.40;52.80;;;;;;6306887;22;20019;-91
2023/05/20 02:48:50;;;;;;;9.65;6.18;;;10.40;96.20;;;;;;6284894;22;20030;-88
2023/05/20 02:51:41;;;;;;;9.75;5.93;;;10.40;99.90;;;;;;6284938;22;20318;-93
2023/05/20 02:54:31;;;;;;;11.82;6.05;;;10.40;99.90;;;;;;6285739;22;20432;-88
2023/05/20 02:57:37;;;;;;;10.48;6.10;;;10.40;99.90;;;;;;6287884;22;20038;-90
2023/05/20 03:00:29;;;;;;;12.07;6.55;;;10.30;99.90;;;;;;6284431;22;20389;-92
2023/05/20 03:03:34;;;;;;;10.10;6.30;;;10.30;99.90;;;;;;6304970;22;20303;-91
2023/05/20 03:06:25;;;;;;;13.55;6.07;;;10.30;99.90;;;;;;6308016;22;20098;-93
2023/05/20 03:09:18;;;;;;;11.35;6.18;;;10.20;99.90;;;;;;6286683;22;20027;-92
2023/05/20 03:12:09;;;;;;;8.93;6.53;;;10.30;99.90;;;;;;6284467;22;20030;-91
2023/05/20 03:15:00;;;;;;;8.20;6.38;;;10.20;99.90;;;;;;6285634;22;20023;-91
2023/05/20 03:17:50;;;;;;;11.98;6.45;;;10.20;99.90;;;;;;6306125;22;20090;-92
2023/05/20 03:20:40;;;;;;;10.13;6.80;;;10.20;99.90;;;;;;6284516;22;20441;-91
2023/05/20 03:23:31;;;;;;;10.80;6.82;;;10.10;1.00;;;;;;6294177;22;20027;-91
2023/05/20 03:26:19;;;;;;;9.15;6.80;;;10.10;1.00;;;;;;6296443;22;20448;-90
2023/05/20 03:29:11;;;;;;;10.80;7.00;;;10.10;1.00;;;;;;6292193;22;20421;-91
2023/05/20 03:31:58;;;;;;;7.40;5.30;;;10.00;1.00;;;;;;6287506;22;20141;-91
2023/05/20 03:34:49;;;;;;;10.10;7.00;;;9.90;1.00;;;;;;6287690;22;20090;-91
2023/05/20 03:37:38;;;;;;;11.50;7.88;;;9.90;99.90;;;;;;6310812;22;20027;-91
2023/05/20 03:40:26;;;;;;;8.93;7.63;;;10.00;99.90;;;;;;6286615;22;20102;-91
2023/05/20 03:43:20;;;;;;;10.68;7.45;;;10.00;99.90;;;;;;6286601;22;20292;-92
2023/05/20 03:46:21;;;;;;;10.80;7.80;;;10.00;99.90;;;;;;6291515;22;20019;-92
2023/05/20 03:49:12;;;;;;;8.55;6.95;;;10.00;99.90;;;;;;6287097;22;20072;-91
2023/05/20 03:52:02;;;;;;;9.43;7.20;;;10.00;99.90;;;;;;6287798;22;20419;-91
2023/05/20 03:54:51;;;;;;;10.82;7.38;;;10.00;99.90;;;;;;6308300;22;20047;-92
2023/05/20 03:57:40;;;;;;;11.00;7.53;;;10.10;99.90;;;;;;6287638;22;20483;-92
2023/05/20 04:00:30;;;;;;;10.55;7.65;;;10.10;1.00;;;;;;6285256;22;20024;-93
2023/05/20 04:07:36;;;;;;;10.93;7.45;;;10.00;1.00;;;;;;6214203;23;20017;-94
2023/05/20 04:10:25;;;;;;;11.82;8.27;;;10.00;1.00;;;;;;6230841;22;20023;-92
2023/05/20 04:13:15;;;;;;;11.52;8.57;;;10.10;99.90;;;;;;6286615;22;20024;-92
2023/05/20 04:16:36;;;;;;;9.77;7.80;;;10.10;99.90;;;;;;6289788;22;20015;-94
2023/05/20 04:19:27;;;;;;;12.00;7.63;;;10.20;99.90;;;;;;6287476;22;20019;-94
2023/05/20 04:22:18;;;;;;;10.63;7.30;;;10.30;99.90;;;;;;6287093;22;20038;-92
2023/05/20 04:25:06;;;;;;;11.02;7.55;;;10.30;99.90;;;;;;6285534;22;20031;-91
2023/05/20 04:27:54;;;;;;;8.95;7.18;;;10.40;99.90;;;;;;6285890;22;20026;-92
2023/05/20 04:30:43;;;;;;;9.95;7.25;;;10.40;99.90;;;;;;6285003;22;20051;-91
2023/05/20 04:33:40;;;;;;;10.23;7.63;;;10.40;77.50;;;;;;6284968;22;20049;-92
2023/05/20 04:36:30;;;;;;;10.25;8.15;;;10.60;28.90;;;;;;6284646;22;20039;-92
2023/05/20 04:39:35;;;;;;;11.02;7.60;;;10.60;1.00;;;;;;6288787;22;20034;-92
2023/05/20 04:42:33;;;;;;;11.18;7.05;;;10.60;1.00;;;;;;6308370;22;20023;-91
2023/05/20 04:45:23;;;;;;;12.73;7.63;;;10.60;1.00;;;;;;6285673;22;20027;-91
2023/05/20 04:48:34;;;;;;;12.57;7.20;;;10.80;1.00;;;;;;6289453;22;20023;-93
2023/05/20 04:51:24;;;;;;;9.50;7.00;;;10.90;1.00;;;;;;6285281;22;20034;-91
2023/05/20 04:54:13;;;;;;;10.10;7.30;;;10.90;99.90;;;;;;6284096;22;20041;-91
2023/05/20 04:57:01;;;;;;;10.70;7.53;;;11.00;99.90;;;;;;6285494;22;20050;-92
2023/05/20 04:59:49;;;;;;;10.27;7.40;;;11.10;99.90;;;;;;6284623;22;20764;-91
2023/05/20 05:02:51;;;;;;;9.85;6.55;;;11.20;99.90;;;;;;6287563;22;20391;-92
2023/05/20 05:05:41;;;;;;;11.15;7.30;;;11.30;99.90;;;;;;6287965;22;20034;-92
2023/05/20 05:08:28;;;;;;;9.93;6.80;;;11.40;80.00;;;;;;6193411;23;20301;-91
2023/05/20 05:11:16;;;;;;;9.63;6.97;;;11.40;1.00;;;;;;6191630;23;20021;-91
2023/05/20 05:14:03;;;;;;;12.52;7.60;;;11.50;1.00;;;;;;6193201;23;20171;-92
2023/05/20 05:16:51;;;;;;;9.50;7.38;;;11.60;1.00;;;;;;6193405;23;20289;-92
2023/05/20 05:19:41;;;;;;;10.73;5.95;;;11.70;1.00;;;;;;6192589;23;20447;-91
2023/05/20 05:22:29;;;;;;;12.13;6.80;;;11.80;99.90;;;;;;6192304;23;20025;-92
2023/05/20 05:25:16;;;;;;;13.02;6.15;;;11.90;99.90;;;;;;6194038;23;20103;-92
2023/05/20 05:28:04;;;;;;;8.73;6.40;;;11.90;99.90;;;;;;6191781;23;20092;-89
2023/05/20 05:30:57;;;;;;;7.28;6.00;;;12.10;99.90;;;;;;6190951;23;20108;-92
2023/05/20 05:33:44;;;;;;;8.43;6.35;;;12.10;99.90;;;;;;6275807;22;20398;-88
2023/05/20 05:36:37;;;;;;;10.50;6.93;;;12.20;99.90;;;;;;6285666;22;20084;-92
2023/05/20 05:39:44;;;;;;;10.48;6.70;;;12.20;91.70;;;;;;6290275;22;20023;-92
2023/05/20 05:42:31;;;;;;;7.68;5.63;;;12.30;21.60;;;;;;6285518;22;20023;-85
2023/05/20 05:45:19;;;;;;;11.20;6.25;;;12.40;1.00;;;;;;6285593;22;20031;-90
2023/05/20 05:48:06;;;;;;;8.00;6.38;;;12.50;1.00;;;;;;6283275;22;20023;-93
2023/05/20 05:50:55;;;;;;;9.80;6.22;;;12.60;1.00;;;;;;6286751;22;20446;-92
2023/05/20 05:53:56;;;;;;;7.78;6.60;;;12.60;1.00;;;;;;6287692;22;20098;-92
2023/05/20 05:56:47;;;;;;;8.48;6.32;;;12.70;1.00;;;;;;6286805;22;20023;-90
2023/05/20 05:59:35;;;;;;;9.57;5.90;;;12.70;1.00;;;;;;6285173;22;20027;-88
2023/05/20 06:02:27;;;;;;;13.32;6.15;;;12.90;99.90;;;;;;6286372;22;20027;-92
2023/05/20 06:05:31;;;;;;;7.10;5.53;;;12.80;99.90;;;;;;6285123;22;20019;-92
2023/05/20 06:08:20;;;;;;;7.57;6.15;;;13.00;99.90;;;;;;6284656;22;20023;-91
2023/05/20 06:11:08;;;;;;;7.88;6.18;;;13.10;99.90;;;;;;6285344;22;20088;-89
2023/05/20 06:13:57;;;;;;;12.10;7.03;;;13.00;99.90;;;;;;6285376;22;20019;-92
2023/05/20 06:16:47;;;;;;;9.77;6.30;;;13.00;99.90;;;;;;6284485;22;20369;-94
2023/05/20 06:19:38;;;;;;;8.50;6.20;;;13.10;99.90;;;;;;6285747;22;20411;-92
2023/05/20 06:22:26;;;;;;;9.38;6.50;;;13.20;99.90;;;;;;6285246;22;20023;-91
2023/05/20 06:25:13;;;;;;;11.25;6.10;;;13.20;99.90;;;;;;6290596;22;20031;-92
2023/05/20 06:28:01;;;;;;;7.63;6.10;;;13.20;99.90;;;;;;6291662;22;20061;-90
2023/05/20 06:30:49;;;;;;;8.85;6.38;;;13.30;99.90;;;;;;6286658;22;20019;-91
2023/05/20 06:33:36;;;;;;;9.13;5.65;;;13.50;99.90;;;;;;6285690;22;20080;-93
2023/05/20 06:36:25;;;;;;;8.07;6.15;;;13.60;99.90;;;;;;6286815;22;20290;-92
2023/05/20 06:39:14;;;;;;;10.30;6.07;;;13.80;99.90;;;;;;6284741;22;20038;-91
2023/05/20 06:42:01;;;;;;;8.30;6.45;;;13.70;99.90;;;;;;6287448;22;20023;-88
2023/05/20 06:44:50;;;;;;;10.57;6.80;;;13.70;99.90;;;;;;6285880;22;20033;-91
2023/05/20 06:47:38;;;;;;;7.80;6.05;;;13.90;99.90;;;;;;6283917;22;20334;-89
2023/05/20 06:50:31;;;;;;;9.40;6.25;;;14.00;99.90;;;;;;6284532;22;20322;-92
2023/05/20 06:53:18;;;;;;;8.57;6.13;;;14.30;99.90;;;;;;6285004;22;20027;-91
2023/05/20 06:56:08;;;;;;;9.27;6.05;;;14.30;99.90;;;;;;6285824;22;20031;-88
2023/05/20 06:59:05;;;;;;;10.10;6.72;;;14.50;90.00;;;;;;6283184;22;20023;-90
2023/05/20 07:02:01;;;;;;;9.02;6.32;;;14.50;46.20;;;;;;6286707;22;20319;-91
2023/05/20 07:04:51;;;;;;;13.50;6.72;;;14.60;30.70;;;;;;6286906;22;20080;-91
2023/05/20 07:07:39;;;;;;;9.30;6.70;;;14.60;16.50;;;;;;6289339;22;20038;-87
2023/05/20 07:10:26;;;;;;;7.78;6.95;;;14.60;1.00;;;;;;6300203;22;20042;-90
2023/05/20 07:13:14;;;;;;;10.50;6.80;;;14.80;1.00;;;;;;6298536;22;20019;-88
2023/05/20 07:16:05;;;;;;;7.85;7.05;;;14.60;1.00;;;;;;6288240;22;20023;-90
2023/05/20 07:19:07;;;;;;;11.13;7.47;;;14.70;1.00;;;;;;6321589;22;20051;-89
2023/05/20 07:22:08;;;;;;;10.90;7.15;;;15.00;1.00;;;;;;6304278;22;20046;-88
2023/05/20 07:25:00;;;;;;;8.10;7.13;;;15.20;1.00;;;;;;6295981;22;20027;-91
2023/05/20 07:27:55;;;;;;;9.13;7.53;;;15.50;1.00;;;;;;6296334;22;20025;-88
2023/05/20 07:31:00;;;;;;;9.23;6.85;;;15.10;1.00;;;;;;6296927;22;20023;-89
2023/05/20 07:34:06;;;;;;;8.48;6.55;;;15.20;1.00;;;;;;6297068;22;20023;-91
2023/05/20 07:37:00;;;;;;;9.27;6.75;;;15.50;1.00;;;;;;6292054;22;20031;-88
2023/05/20 07:40:27;;;;;;;7.55;6.32;;;15.60;1.00;;;;;;6314401;22;20020;-91
2023/05/20 07:43:20;;;;;;;9.35;6.90;;;16.00;1.00;;;;;;6287146;22;20134;-89
2023/05/20 07:46:15;;;;;;;8.70;6.78;;;16.40;1.00;;;;;;6293740;22;20110;-90
2023/05/20 07:49:13;;;;;;;10.55;6.10;;;16.60;99.90;;;;;;6288219;22;20027;-88
2023/05/20 07:52:07;;;;;;;8.18;6.07;;;17.00;99.90;;;;;;6286798;22;20023;-95
2023/05/20 07:55:00;;;;;;;10.02;7.13;;;16.70;99.90;;;;;;6286376;22;20030;-90
2023/05/20 07:57:50;;;;;;;7.40;6.60;;;16.80;99.90;;;;;;6288144;22;20078;-90
2023/05/20 08:00:40;;;;;;;9.43;6.05;;;16.70;99.90;;;;;;6288926;22;20031;-89
2023/05/20 08:03:30;;;;;;;11.80;6.07;;;16.60;99.90;;;;;;6286966;22;20055;-90
2023/05/20 08:06:20;;;;;;;8.35;5.82;;;16.80;99.90;;;;;;6287127;22;20023;-89
2023/05/20 08:09:22;;;;;;;8.23;5.38;;;17.10;99.90;;;;;;6294551;22;20361;-90
2023/05/20 08:12:13;;;;;;;7.90;5.97;;;17.00;99.90;;;;;;6286621;22;20019;-91
2023/05/20 08:15:07;;;;;;;9.15;6.40;;;16.90;99.90;;;;;;6285869;22;20051;-92
2023/05/20 08:17:55;;;;;;;7.70;5.95;;;16.50;99.90;;;;;;6286307;22;20038;-90
2023/05/20 08:20:43;;;;;;;7.57;6.20;;;16.30;99.90;;;;;;6285959;22;20108;-90
2023/05/20 08:23:34;;;;;;;7.82;6.65;;;16.10;99.90;;;;;;6285894;22;20027;-90
2023/05/20 08:26:28;;;;;;;10.27;6.82;;;16.00;99.90;;;;;;6287094;22;20426;-90
2023/05/20 08:29:17;;;;;;;7.50;6.45;;;15.70;99.90;;;;;;6285471;22;20019;-90
2023/05/20 08:32:05;;;;;;;9.40;6.88;;;15.70;99.90;;;;;;6285616;22;20034;-89
2023/05/20 08:34:56;;;;;;;10.02;6.60;;;15.80;99.90;;;;;;6286099;22;20027;-88
2023/05/20 08:37:46;;;;;;;10.93;6.65;;;15.60;99.90;;;;;;6287191;22;20023;-90
2023/05/20 08:40:39;;;;;;;7.90;6.60;;;15.50;99.90;;;;;;6287855;22;20027;-91
2023/05/20 08:43:31;;;;;;;8.45;6.30;;;15.80;99.90;;;;;;6286747;22;20274;-88
2023/05/20 08:46:20;;;;;;;7.40;6.25;;;16.10;99.90;;;;;;6285757;22;20031;-91
2023/05/20 08:49:08;;;;;;;7.10;6.28;;;16.40;99.90;;;;;;6283992;22;20386;-88
2023/05/20 08:52:00;;;;;;;10.95;6.60;;;16.80;99.90;;;;;;6285002;22;20019;-90
2023/05/20 08:54:49;;;;;;;6.40;5.70;;;17.20;99.90;;;;;;6284273;22;20102;-91
2023/05/20 08:57:37;;;;;;;7.85;5.82;;;17.60;99.90;;;;;;6287875;22;20023;-91
2023/05/20 09:00:27;;;;;;;7.75;5.53;;;18.50;99.90;;;;;;6284895;22;20098;-90
2023/05/20 09:03:15;;;;;;;6.10;5.50;;;18.70;99.90;;;;;;6285264;22;20038;-92
2023/05/20 09:06:08;;;;;;;6.40;5.40;;;18.70;99.90;;;;;;6284521;22;20174;-91
2023/05/20 09:08:56;;;;;;;7.38;5.45;;;19.30;99.90;;;;;;6285642;22;20019;-91
2023/05/20 09:11:43;;;;;;;6.40;4.90;;;19.10;99.90;;;;;;6284516;22;20026;-92
2023/05/20 09:14:33;;;;;;;8.05;5.55;;;18.50;99.90;;;;;;6286091;22;20349;-90
2023/05/20 09:17:23;;;;;;;7.13;5.80;;;18.30;99.90;;;;;;6286506;22;20019;-93
2023/05/20 09:20:11;;;;;;;8.13;5.45;;;18.50;99.90;;;;;;6287342;22;20031;-92
2023/05/20 09:23:07;;;;;;;6.60;5.90;;;18.40;99.90;;;;;;6289002;22;20101;-92
2023/05/20 09:26:03;;;;;;;6.72;5.50;;;17.80;99.90;;;;;;6289544;22;20030;-91
2023/05/20 09:28:50;;;;;;;8.35;5.25;;;18.60;99.90;;;;;;6284455;22;20098;-89
2023/05/20 09:31:39;;;;;;;7.30;5.45;;;18.70;99.90;;;;;;6285719;22;20110;-87
2023/05/20 09:34:30;;;;;;;8.38;5.10;;;18.50;99.90;;;;;;6285111;22;20023;-89
2023/05/20 09:37:21;;;;;;;7.60;5.03;;;18.80;99.90;;;;;;6193883;23;20036;-92
2023/05/20 09:40:28;;;;;;;6.22;4.57;;;19.80;99.90;;;;;;6197531;23;20094;-91
2023/05/20 09:43:17;;;;;;;7.88;4.68;;;20.00;99.90;;;;;;6196070;23;20028;-91
2023/05/20 09:46:04;;;;;;;6.03;4.85;;;20.60;99.90;;;;;;6193895;23;20221;-89
2023/05/20 09:48:53;;;;;;;6.53;5.13;;;21.50;99.90;;;;;;6194415;23;20114;-88
2023/05/20 09:51:44;;;;;;;6.68;4.68;;;21.60;99.90;;;;;;6194874;23;20181;-90
2023/05/20 09:54:48;;;;;;;5.60;4.30;;;21.50;99.90;;;;;;6200393;23;20043;-90
2023/05/20 09:57:36;;;;;;;5.40;4.50;;;22.30;99.90;;;;;;6202538;23;20090;-89
2023/05/20 10:00:24;;;;;;;6.38;4.70;;;23.40;99.90;;;;;;6199905;23;20458;-87
2023/05/20 10:03:17;;;;;;;7.78;4.78;;;22.30;98.40;;;;;;6286369;22;20027;-89
2023/05/20 10:06:44;;;;;;;5.80;4.90;;;21.20;98.50;;;;;;6288412;22;20023;-92
2023/05/20 10:09:58;;;;;;;4.90;4.38;;;21.10;99.90;;;;;;6287508;22;20023;-91
2023/05/20 10:13:01;;;;;;;7.55;4.43;;;21.40;99.90;;;;;;6288559;22;20027;-91
2023/05/20 10:15:52;;;;;;;7.57;4.00;;;22.00;99.90;;;;;;6287625;22;20111;-90
2023/05/20 10:18:57;;;;;;;6.78;4.35;;;22.80;95.20;;;;;;6291025;22;20019;-89
2023/05/20 10:22:03;;;;;;;5.50;4.32;;;23.50;96.40;;;;;;6296500;22;20462;-91
2023/05/20 10:25:06;;;;;;;5.32;4.00;;;24.20;97.90;;;;;;6294464;22;20019;-90
2023/05/20 10:28:08;;;;;;;6.97;4.28;;;24.50;90.30;;;;;;6285532;22;20026;-87
2023/05/20 10:30:56;;;;;;;4.47;4.00;;;25.00;87.70;;;;;;6286854;22;20088;-91
2023/05/20 10:33:45;;;;;;;5.03;4.22;;;24.40;80.10;;;;;;6288345;22;20027;-93
2023/05/20 10:36:33;;;;;;;5.55;4.65;;;24.30;79.80;;;;;;6288156;22;20019;-92
2023/05/20 10:39:32;;;;;;;5.20;3.95;;;23.70;68.40;;;;;;6287520;22;20039;-90
2023/05/20 10:42:28;;;;;;;5.93;4.03;;;24.10;83.70;;;;;;6286724;22;20037;-91
2023/05/20 10:45:31;;;;;;;4.57;3.67;;;24.70;75.10;;;;;;6291440;22;20038;-90
2023/05/20 10:48:23;;;;;;;5.00;3.97;;;24.70;66.70;;;;;;6286709;22;20035;-89
2023/05/20 10:51:13;;;;;;;;;;;24.20;60.80;;;;;;6286247;22;20030;-90
2023/05/20 10:54:04;;;;;;;6.82;3.60;;;24.50;65.70;;;;;;6288182;22;19915;-89
2023/05/20 10:56:52;;;;;;;4.00;3.47;;;25.10;69.40;;;;;;6285790;22;20322;-88
2023/05/20 10:59:41;;;;;;;6.75;3.92;;;26.00;57.40;;;;;;6283424;22;20027;-92
2023/05/20 11:02:29;;;;;;;4.35;3.90;;;27.30;62.20;;;;;;6283011;22;20207;-91
2023/05/20 11:05:21;;;;;;;5.47;4.30;;;26.40;48.50;;;;;;6285160;22;20152;-89
2023/05/20 11:08:09;;;;;;;6.07;4.65;;;24.90;64.70;;;;;;6285626;22;20031;-88
2023/05/20 11:11:15;;;;;;;6.47;3.97;;;24.50;48.50;;;;;;6287804;22;20019;-88
2023/05/20 11:14:03;;;;;;;3.85;3.38;;;25.30;61.30;;;;;;6285004;22;20033;-91
2023/05/20 11:16:52;;;;;;;5.85;3.85;;;25.00;45.60;;;;;;6285163;22;20031;-89
2023/05/20 11:19:40;;;;;;;4.40;3.60;;;24.40;43.60;;;;;;6285682;22;20035;-91
2023/05/20 11:22:31;;;;;;;5.72;4.50;;;23.60;45.80;;;;;;6285163;22;20410;-91
2023/05/20 11:25:20;;;;;;;5.25;4.22;;;22.80;40.40;;;;;;6286570;22;20103;-92
2023/05/20 11:28:13;;;;;;;5.07;3.83;;;22.90;60.50;;;;;;6285147;22;20031;-87
2023/05/20 11:31:01;;;;;;;10.75;4.00;;;23.90;54.20;;;;;;6284918;22;20031;-94
2023/05/20 11:33:55;;;;;;;5.25;4.35;;;24.20;53.50;;;;;;6301888;22;20023;-87
2023/05/20 11:36:49;;;;;;;4.30;3.75;;;23.90;48.50;;;;;;6304308;22;20057;-88
2023/05/20 11:40:08;;;;;;;6.13;3.85;;;23.90;60.00;;;;;;6312910;22;20007;-89
2023/05/20 11:42:58;;;;;;;4.65;3.63;;;24.10;49.40;;;;;;6309591;22;20037;-87
2023/05/20 11:45:54;;;;;;;4.20;3.80;;;24.00;53.40;;;;;;6300878;22;20098;-90
2023/05/20 11:49:00;;;;;;;8.40;4.70;;;23.40;57.90;;;;;;6302779;22;20075;-88
2023/05/20 11:51:49;;;;;;;4.80;3.95;;;22.80;50.80;;;;;;6298898;22;20019;-88
2023/05/20 11:54:41;;;;;;;5.32;4.20;;;22.80;48.10;;;;;;6300560;22;20098;-87
2023/05/20 11:57:29;;;;;;;6.82;4.40;;;22.70;50.30;;;;;;6290931;22;20019;-88
2023/05/20 12:00:37;;;;;;;6.18;4.40;;;23.10;49.60;;;;;;6143231;23;20037;-91
2023/05/20 12:03:40;;;;;;;5.30;4.28;;;23.40;52.40;;;;;;6141224;23;20362;-88
2023/05/20 12:06:28;;;;;;;7.40;4.13;;;24.10;46.60;;;;;;6139883;23;20067;-93
2023/05/20 12:09:21;;;;;;;3.83;3.42;;;24.90;43.30;;;;;;6136300;23;20029;-91
2023/05/20 12:12:12;;;;;;;5.63;4.43;;;25.60;43.00;;;;;;6136218;23;20381;-87
2023/05/20 12:15:00;;;;;;;4.75;3.65;;;26.50;33.80;;;;;;6137168;23;20022;-88
2023/05/20 12:17:51;;;;;;;3.45;3.15;;;28.40;40.90;;;;;;6192032;22;20428;-90
2023/05/20 12:20:41;;;;;;;4.00;3.58;;;28.60;35.90;;;;;;6293205;22;20020;-90
2023/05/20 12:23:32;;;;;;;5.65;3.22;;;27.50;23.50;;;;;;6285034;22;20023;-90
2023/05/20 12:26:24;;;;;;;8.07;3.83;;;26.60;25.40;;;;;;6287596;22;20027;-90
2023/05/20 12:29:13;;;;;;;4.95;3.55;;;25.80;25.70;;;;;;6287134;22;20050;-90
2023/05/20 12:32:00;;;;;;;3.88;3.38;;;26.90;25.50;;;;;;6289989;22;20019;-92
2023/05/20 12:34:49;;;;;;;3.63;2.95;;;28.40;31.50;;;;;;6293372;22;20030;-88
2023/05/20 12:37:58;;;;;;;4.00;3.03;;;30.10;33.60;;;;;;6287529;22;20031;-87
2023/05/20 12:40:48;;;;;;;5.25;2.97;;;28.80;23.80;;;;;;6287970;22;20157;-88
2023/05/20 12:43:36;;;;;;;4.70;3.78;;;26.70;24.90;;;;;;6288157;22;20102;-90
2023/05/20 12:46:24;;;;;;;4.15;3.20;;;25.10;24.00;;;;;;6289356;22;20050;-87
2023/05/20 12:49:12;;;;;;;5.60;3.58;;;24.80;40.30;;;;;;6290398;22;20031;-90
2023/05/20 12:52:00;;;;;;;5.43;3.90;;;24.80;36.60;;;;;;6291947;22;20026;-91
2023/05/20 12:55:14;;;;;;;4.22;3.33;;;25.00;27.00;;;;;;6288932;22;20037;-91
2023/05/20 12:58:07;;;;;;;6.00;3.47;;;24.70;33.70;;;;;;6307823;22;20276;-89
2023/05/20 13:00:55;;;;;;;3.78;3.42;;;25.70;43.50;;;;;;6285526;22;20019;-89
2023/05/20 13:03:42;;;;;;;5.47;3.30;;;26.60;37.30;;;;;;6285783;22;20707;-88
2023/05/20 13:06:30;;;;;;;4.38;3.50;;;26.60;23.70;;;;;;6286505;22;20445;-91
2023/05/20 13:09:17;;;;;;;7.57;3.35;;;25.30;23.30;;;;;;6286393;22;20027;-86
2023/05/20 13:12:05;;;;;;;4.22;3.47;;;24.30;17.40;;;;;;6285929;22;20416;-89
2023/05/20 13:14:54;;;;;;;4.68;3.65;;;24.80;22.30;;;;;;6285248;22;20098;-88
2023/05/20 13:17:43;;;;;;;4.18;3.10;;;25.50;13.60;;;;;;6286016;22;20015;-88
2023/05/20 13:20:33;;;;;;;6.32;3.13;;;25.50;32.10;;;;;;6306727;22;20034;-88
2023/05/20 13:23:22;;;;;;;3.97;3.25;;;25.80;38.80;;;;;;6284264;22;20031;-90
2023/05/20 13:26:09;;;;;;;8.25;3.63;;;25.10;25.20;;;;;;6284158;22;20055;-89
2023/05/20 13:28:58;;;;;;;4.82;3.65;;;24.30;23.90;;;;;;6283694;22;20033;-86
2023/05/20 13:31:46;;;;;;;7.20;3.30;;;23.90;22.40;;;;;;6286387;22;20021;-87
2023/05/20 13:34:34;;;;;;;5.55;3.50;;;23.90;26.00;;;;;;6285508;22;20023;-89
2023/05/20 13:37:24;;;;;;;4.07;3.17;;;24.10;26.30;;;;;;6286016;22;20093;-90
2023/05/20 13:40:14;;;;;;;6.22;3.42;;;24.20;25.00;;;;;;6292481;22;20098;-88
2023/05/20 13:43:02;;;;;;;6.15;3.53;;;24.10;23.50;;;;;;6284757;22;20034;-89
2023/05/20 13:46:03;;;;;;;4.40;3.30;;;23.80;17.20;;;;;;6287042;22;20287;-87
2023/05/20 13:48:50;;;;;;;5.88;3.30;;;23.50;21.50;;;;;;6285430;22;20027;-90
2023/05/20 13:51:42;;;;;;;5.72;3.50;;;23.20;17.20;;;;;;6284039;22;20356;-91
2023/05/20 13:54:32;;;;;;;6.78;3.47;;;23.10;21.30;;;;;;6284917;22;20035;-90
2023/05/20 13:57:22;;;;;;;4.88;3.30;;;23.10;12.80;;;;;;6307111;22;20031;-87
2023/05/20 14:00:12;;;;;;;4.68;3.55;;;23.10;10.70;;;;;;6288365;22;20081;-89
2023/05/20 14:02:59;;;;;;;6.90;3.90;;;23.00;16.50;;;;;;6286294;22;20382;-89
2023/05/20 14:05:47;;;;;;;6.07;3.72;;;22.70;10.00;;;;;;6283498;22;20030;-91
2023/05/20 14:08:34;;;;;;;6.00;3.20;;;23.10;11.90;;;;;;6282971;22;20027;-87
2023/05/20 14:11:24;;;;;;;8.10;3.38;;;23.90;19.40;;;;;;6283933;22;20026;-90
2023/05/20 14:14:11;;;;;;;4.38;3.25;;;24.10;18.50;;;;;;6284638;22;20071;-89
2023/05/20 14:16:59;;;;;;;3.50;3.15;;;24.10;7.20;;;;;;6286885;22;20034;-90
2023/05/20 14:19:52;;;;;;;4.47;3.30;;;24.10;11.80;;;;;;6288114;22;20092;-90
2023/05/20 14:22:53;;;;;;;4.10;3.70;;;24.20;12.60;;;;;;6291741;22;20037;-89
2023/05/20 14:25:44;;;;;;;3.53;3.22;;;24.20;10.90;;;;;;6286969;22;20098;-90
2023/05/20 14:28:34;;;;;;;3.97;3.20;;;23.90;18.50;;;;;;6286947;22;20031;-90
2023/05/20 14:31:21;;;;;;;3.65;3.35;;;23.60;6.20;;;;;;6282761;22;20042;-90
2023/05/20 14:34:09;;;;;;;7.57;3.38;;;23.40;3.60;;;;;;6284608;22;20023;-91
2023/05/20 14:37:04;;;;;;;3.92;3.20;;;23.10;1.30;;;;;;6284999;22;20098;-89
2023/05/20 14:39:54;;;;;;;5.03;3.72;;;23.10;2.90;;;;;;6284261;22;20102;-89
2023/05/20 14:42:41;;;;;;;5.57;3.35;;;22.70;6.60;;;;;;6284559;22;20023;-88
2023/05/20 14:45:28;;;;;;;7.32;3.40;;;22.40;5.20;;;;;;6282840;22;20035;-87
2023/05/20 14:48:19;;;;;;;4.05;3.60;;;22.40;8.30;;;;;;6284953;22;20030;-93
2023/05/20 14:51:09;;;;;;;8.32;3.80;;;22.80;16.80;;;;;;6283317;22;20019;-86
2023/05/20 14:53:57;;;;;;;4.80;3.47;;;22.70;15.30;;;;;;6306141;22;20128;-89
2023/05/20 14:56:45;;;;;;;5.75;4.18;;;22.50;17.60;;;;;;6285326;22;20027;-88
2023/05/20 14:59:37;;;;;;;4.65;3.22;;;22.30;11.00;;;;;;6286183;22;20059;-91
2023/05/20 15:02:26;;;;;;;5.13;3.40;;;22.20;17.00;;;;;;6284946;22;20069;-90